createdAt,value
2023-04-24T00:01:02.076Z,41469.66
2023-04-24T00:03:29.166Z,41469.66
2023-04-24T00:05:55.889Z,41461.66
2023-04-24T00:08:23.597Z,41457.69
2023-04-24T00:10:50.075Z,41453.69
2023-04-24T00:13:16.502Z,41439.72
2023-04-24T00:15:43.212Z,41455.69
2023-04-24T00:18:10.494Z,41463.66
2023-04-24T00:20:36.924Z,41457.69
2023-04-24T00:23:03.608Z,41435.72
2023-04-24T00:25:30.144Z,41403.78
2023-04-24T00:27:56.550Z,41405.78
2023-04-24T00:30:23.058Z,41407.78
2023-04-24T00:32:49.753Z,41387.81
2023-04-24T00:35:17.568Z,41385.81
2023-04-24T00:37:44.285Z,41371.84
2023-04-24T00:40:11.608Z,41363.88
2023-04-24T00:42:38.099Z,41375.84
2023-04-24T00:45:05.473Z,41391.81
2023-04-24T00:47:34.145Z,41375.84
2023-04-24T00:50:06.446Z,41387.81
2023-04-24T00:52:33.643Z,41375.84
2023-04-24T00:55:00.404Z,41381.81
2023-04-24T00:57:27.764Z,41355.88
2023-04-24T00:59:54.599Z,41363.88
2023-04-24T01:02:23.427Z,41371.84
2023-04-24T01:04:51.726Z,41363.88
2023-04-24T01:07:21.716Z,41371.84
2023-04-24T01:09:49.855Z,41333.91
2023-04-24T01:12:16.548Z,41343.91
2023-04-24T01:14:45.277Z,41373.84
2023-04-24T01:17:11.896Z,41363.88
2023-04-24T01:19:39.044Z,41327.94
2023-04-24T01:22:12.646Z,41351.88
2023-04-24T01:24:39.565Z,41363.88
2023-04-24T01:27:06.209Z,41363.88
2023-04-24T01:29:32.928Z,41357.88
2023-04-24T01:31:59.602Z,41367.84
2023-04-24T01:34:26.747Z,41327.94
2023-04-24T01:36:53.307Z,41335.91
2023-04-24T01:39:21.423Z,41351.88
2023-04-24T01:41:47.859Z,41327.94
2023-04-24T01:44:15.150Z,41339.91
2023-04-24T01:46:42.070Z,41331.94
2023-04-24T01:49:08.687Z,41359.88
2023-04-24T01:51:35.270Z,41347.91
2023-04-24T01:54:03.614Z,41377.84
2023-04-24T01:56:31.262Z,41355.88
2023-04-24T01:58:58.560Z,41359.88
2023-04-24T02:01:25.850Z,41351.88
2023-04-24T02:03:52.488Z,41359.88
2023-04-24T02:06:18.985Z,41365.84
2023-04-24T02:08:45.374Z,41331.94
2023-04-24T02:11:11.848Z,41347.91
2023-04-24T02:13:38.389Z,41375.84
2023-04-24T02:16:05.496Z,41347.91
2023-04-24T02:18:32.055Z,41353.88
2023-04-24T02:20:58.431Z,41355.88
2023-04-24T02:23:24.999Z,41347.91
2023-04-24T02:25:51.400Z,41347.91
2023-04-24T02:28:17.905Z,41347.91
2023-04-24T02:30:44.351Z,41357.88
2023-04-24T02:33:10.908Z,41343.91
2023-04-24T02:35:37.343Z,41353.88
2023-04-24T02:38:04.342Z,41351.88
2023-04-24T02:40:31.097Z,41343.91
2023-04-24T02:42:57.491Z,41335.91
2023-04-24T02:45:24.439Z,41347.91
2023-04-24T02:47:51.482Z,41319.94
2023-04-24T02:50:17.977Z,41355.88
2023-04-24T02:52:44.793Z,41327.94
2023-04-24T02:55:11.450Z,41347.91
2023-04-24T02:57:37.912Z,41313.97
2023-04-24T03:00:07.939Z,41339.91
2023-04-24T03:02:35.051Z,41361.88
2023-04-24T03:05:03.184Z,41323.94
2023-04-24T03:07:29.747Z,41357.88
2023-04-24T03:09:56.708Z,41315.97
2023-04-24T03:12:24.686Z,41339.91
2023-04-24T03:14:51.095Z,41323.94
2023-04-24T03:17:19.375Z,41339.91
2023-04-24T03:19:46.052Z,41339.91
2023-04-24T03:22:13.526Z,41351.88
2023-04-24T03:24:41.360Z,41335.91
2023-04-24T03:27:08.195Z,41351.88
2023-04-24T03:30:04.763Z,41323.94
2023-04-24T03:32:43.027Z,41327.94
2023-04-24T03:35:12.899Z,41331.94
2023-04-24T03:37:39.611Z,41351.88
2023-04-24T03:40:30.425Z,41319.94
2023-04-24T03:42:58.024Z,41335.91
2023-04-24T03:45:25.208Z,41355.88
2023-04-24T03:47:52.429Z,41343.91
2023-04-24T03:50:19.420Z,41319.94
2023-04-24T03:52:46.200Z,41303.97
2023-04-24T03:55:21.288Z,41311.97
2023-04-24T03:57:48.637Z,41315.97
2023-04-24T04:00:22.011Z,41335.91
2023-04-24T04:02:56.315Z,41331.94
2023-04-24T04:05:23.283Z,41327.94
2023-04-24T04:07:50.047Z,41333.91
2023-04-24T04:10:18.065Z,41325.94
2023-04-24T04:12:44.543Z,41327.94
2023-04-24T04:15:11.213Z,41329.94
2023-04-24T04:17:38.902Z,41290.00
2023-04-24T04:20:10.872Z,41329.94
2023-04-24T04:22:38.807Z,41319.94
2023-04-24T04:25:09.304Z,41300.00
2023-04-24T04:27:37.201Z,41323.94
2023-04-24T04:30:10.596Z,41319.94
2023-04-24T04:32:46.473Z,41327.94
2023-04-24T04:35:14.292Z,41313.97
2023-04-24T04:37:41.572Z,41303.97
2023-04-24T04:40:16.612Z,41286.03
2023-04-24T04:42:54.866Z,41300.00
2023-04-24T04:45:22.520Z,41292.00
2023-04-24T04:48:19.554Z,41282.03
2023-04-24T04:50:46.496Z,41296.00
2023-04-24T04:53:13.986Z,41288.00
2023-04-24T04:55:42.221Z,41300.00
2023-04-24T04:58:14.606Z,41268.06
2023-04-24T05:00:42.382Z,41284.03
2023-04-24T05:03:29.244Z,41278.03
2023-04-24T05:06:01.397Z,41280.03
2023-04-24T05:08:29.489Z,41268.06
2023-04-24T05:10:56.505Z,41284.03
2023-04-24T05:15:54.264Z,41274.03
2023-04-24T05:18:20.876Z,41270.06
2023-04-24T05:20:47.916Z,41319.94
2023-04-24T05:23:14.448Z,41282.03
2023-04-24T05:25:44.049Z,41303.97
2023-04-24T05:28:12.878Z,41303.97
2023-04-24T05:30:39.655Z,41311.97
2023-04-24T05:33:07.345Z,41296.00
2023-04-24T05:35:35.627Z,41321.94
2023-04-24T05:38:02.407Z,41325.94
2023-04-24T05:40:29.043Z,41323.94
2023-04-24T05:42:55.996Z,41331.94
2023-04-24T05:45:25.164Z,41327.94
2023-04-24T05:47:53.507Z,41325.94
2023-04-24T05:50:20.193Z,41351.88
2023-04-24T05:52:47.371Z,41335.91
2023-04-24T05:55:26.161Z,41371.84
2023-04-24T05:57:53.554Z,41357.88
2023-04-24T06:00:21.058Z,41379.84
2023-04-24T06:02:56.580Z,41367.84
2023-04-24T06:05:23.330Z,41417.75
2023-04-24T06:07:53.228Z,41417.75
2023-04-24T06:10:24.653Z,41419.75
2023-04-24T06:12:52.451Z,41415.75
2023-04-24T06:15:19.509Z,41417.75
2023-04-24T06:17:52.255Z,41423.75
2023-04-24T06:20:20.498Z,41419.75
2023-04-24T06:22:47.062Z,41447.69
2023-04-24T06:25:13.474Z,41427.75
2023-04-24T06:27:39.861Z,41447.69
2023-04-24T06:30:08.962Z,41431.72
2023-04-24T06:32:35.593Z,41427.75
2023-04-24T06:35:02.620Z,41459.66
2023-04-24T06:37:29.244Z,41417.75
2023-04-24T06:39:55.598Z,41451.69
2023-04-24T06:42:22.874Z,41449.69
2023-04-24T06:44:50.408Z,41463.66
2023-04-24T06:47:17.584Z,41473.66
2023-04-24T06:49:44.336Z,41493.59
2023-04-24T06:52:11.065Z,41451.69
2023-04-24T06:54:37.465Z,41477.63
2023-04-24T06:57:04.030Z,41481.63
2023-04-24T06:59:31.331Z,41459.66
2023-04-24T07:01:58.468Z,41475.63
2023-04-24T07:04:26.270Z,41503.59
2023-04-24T07:06:55.318Z,41507.59
2023-04-24T07:09:21.706Z,41471.66
2023-04-24T07:11:48.245Z,41483.63
2023-04-24T07:14:14.904Z,41479.63
2023-04-24T07:16:41.652Z,41511.56
2023-04-24T07:19:08.174Z,41499.59
2023-04-24T07:21:34.648Z,41471.66
2023-04-24T07:24:01.530Z,41473.66
2023-04-24T07:26:30.477Z,41463.66
2023-04-24T07:28:57.170Z,41487.63
2023-04-24T07:31:23.627Z,41519.56
2023-04-24T07:33:50.072Z,41479.63
2023-04-24T07:36:19.720Z,41487.63
2023-04-24T07:38:47.133Z,41503.59
2023-04-24T07:41:14.919Z,41503.59
2023-04-24T07:43:41.879Z,41505.59
2023-04-24T07:46:09.324Z,41503.59
2023-04-24T07:48:35.975Z,41503.59
2023-04-24T07:51:02.980Z,41507.59
2023-04-24T07:53:29.398Z,41541.50
2023-04-24T07:55:57.108Z,41535.53
2023-04-24T07:58:23.579Z,41519.56
2023-04-24T08:00:50.044Z,41583.44
2023-04-24T08:03:19.319Z,41597.41
2023-04-24T08:05:45.949Z,41591.41
2023-04-24T08:08:12.442Z,41591.41
2023-04-24T08:10:39.443Z,41595.41
2023-04-24T08:13:05.897Z,41627.34
2023-04-24T08:15:32.305Z,41671.25
2023-04-24T08:17:59.205Z,41719.16
2023-04-24T08:20:25.980Z,41747.13
2023-04-24T08:22:52.368Z,41797.03
2023-04-24T08:25:20.070Z,41862.91
2023-04-24T08:27:46.543Z,41918.81
2023-04-24T08:30:13.127Z,41966.72
2023-04-24T08:32:40.496Z,41994.66
2023-04-24T08:35:09.540Z,42066.53
2023-04-24T08:37:36.927Z,42078.50
2023-04-24T08:40:07.955Z,42126.44
2023-04-24T08:42:36.619Z,42130.41
2023-04-24T08:45:03.552Z,42170.34
2023-04-24T08:47:31.148Z,42176.34
2023-04-24T08:49:58.329Z,42194.31
2023-04-24T08:52:26.688Z,42194.31
2023-04-24T08:54:54.592Z,42190.31
2023-04-24T08:57:20.981Z,42218.25
2023-04-24T08:59:48.214Z,42202.28
2023-04-24T09:02:15.896Z,42198.31
2023-04-24T09:04:44.448Z,42234.25
2023-04-24T09:07:12.711Z,42254.19
2023-04-24T09:09:39.772Z,42244.22
2023-04-24T09:12:06.903Z,42258.19
2023-04-24T09:14:34.021Z,42266.19
2023-04-24T09:17:00.471Z,42258.19
2023-04-24T09:19:27.358Z,42268.19
2023-04-24T09:21:53.814Z,42258.19
2023-04-24T09:24:23.582Z,42262.19
2023-04-24T09:26:58.649Z,42266.19
2023-04-24T09:29:25.805Z,42270.19
2023-04-24T09:31:52.357Z,42288.16
2023-04-24T09:34:24.667Z,42282.16
2023-04-24T09:36:51.867Z,42280.16
2023-04-24T09:39:21.008Z,42256.19
2023-04-24T09:41:48.828Z,42274.16
2023-04-24T09:44:23.743Z,42296.13
2023-04-24T09:46:54.160Z,42278.16
2023-04-24T09:49:25.926Z,42278.16
2023-04-24T09:51:53.044Z,42284.16
2023-04-24T09:54:22.330Z,42274.16
2023-04-24T09:56:51.539Z,42266.19
2023-04-24T09:59:19.700Z,42248.22
2023-04-24T10:01:46.611Z,42264.19
2023-04-24T10:04:21.652Z,42270.19
2023-04-24T10:06:50.001Z,42272.16
2023-04-24T10:09:17.798Z,42288.16
2023-04-24T10:11:46.893Z,42300.13
2023-04-24T10:14:15.789Z,42294.13
2023-04-24T10:16:43.268Z,42286.16
2023-04-24T10:19:10.767Z,42314.09
2023-04-24T10:21:43.347Z,42302.13
2023-04-24T10:24:10.048Z,42314.09
2023-04-24T10:26:37.532Z,42290.13
2023-04-24T10:29:07.323Z,42306.13
2023-04-24T10:31:34.280Z,42298.13
2023-04-24T10:34:02.114Z,42290.13
2023-04-24T10:36:33.227Z,42300.13
2023-04-24T10:39:01.903Z,42318.09
2023-04-24T10:41:28.340Z,42334.06
2023-04-24T10:44:16.629Z,42342.06
2023-04-24T10:46:49.164Z,42336.06
2023-04-24T10:49:15.684Z,42322.09
2023-04-24T10:51:51.731Z,42298.13
2023-04-24T10:54:51.465Z,42326.09
2023-04-24T10:57:24.018Z,42316.09
2023-04-24T10:59:52.769Z,42318.09
2023-04-24T11:02:19.468Z,42288.16
2023-04-24T11:04:46.580Z,42264.19
2023-04-24T11:07:13.637Z,42278.16
2023-04-24T11:09:43.706Z,42268.19
2023-04-24T11:12:12.054Z,42262.19
2023-04-24T11:14:59.272Z,42234.25
2023-04-24T11:17:34.133Z,42178.34
2023-04-24T11:20:25.741Z,42134.41
2023-04-24T11:22:58.691Z,42106.47
2023-04-24T11:25:25.894Z,42086.50
2023-04-24T11:28:04.722Z,42100.47
2023-04-24T11:30:32.252Z,42072.53
2023-04-24T11:33:04.540Z,42066.53
2023-04-24T11:35:36.760Z,42088.50
2023-04-24T11:38:22.781Z,42050.56
2023-04-24T11:40:50.636Z,42068.53
2023-04-24T11:43:19.729Z,42042.56
2023-04-24T11:45:49.808Z,42060.53
2023-04-24T11:48:22.584Z,42030.59
2023-04-24T11:50:51.159Z,42006.66
2023-04-24T11:53:21.401Z,42012.63
2023-04-24T11:55:47.985Z,41994.66
2023-04-24T11:58:14.378Z,41986.69
2023-04-24T12:00:40.856Z,41946.75
2023-04-24T12:03:09.934Z,41978.69
2023-04-24T12:05:37.266Z,41938.75
2023-04-24T12:08:03.936Z,41874.88
2023-04-24T12:10:31.730Z,41811.00
2023-04-24T12:12:59.470Z,41803.00
2023-04-24T12:15:26.512Z,41803.00
2023-04-24T12:17:54.815Z,41799.03
2023-04-24T12:20:33.130Z,41824.97
2023-04-24T12:23:01.247Z,41771.06
2023-04-24T12:25:33.784Z,41735.16
2023-04-24T12:28:06.585Z,41751.13
2023-04-24T12:30:40.980Z,41699.22
2023-04-24T12:33:07.907Z,41667.28
2023-04-24T12:35:36.413Z,41671.25
2023-04-24T12:38:10.889Z,41623.34
2023-04-24T12:40:37.329Z,41621.34
2023-04-24T12:43:17.730Z,41643.31
2023-04-24T12:45:45.703Z,41633.34
2023-04-24T12:48:12.638Z,41621.34
2023-04-24T12:50:39.511Z,41591.41
2023-04-24T12:53:07.654Z,41571.47
2023-04-24T12:55:34.017Z,41509.56
2023-04-24T12:58:00.633Z,41511.56
2023-04-24T13:00:27.120Z,41523.56
2023-04-24T13:02:53.940Z,41465.66
2023-04-24T13:05:23.527Z,41489.63
2023-04-24T13:07:51.665Z,41471.66
2023-04-24T13:10:18.144Z,41465.66
2023-04-24T13:12:46.942Z,41487.63
2023-04-24T13:15:14.206Z,41511.56
2023-04-24T13:17:40.997Z,41483.63
2023-04-24T13:20:07.990Z,41459.66
2023-04-24T13:22:34.377Z,41479.63
2023-04-24T13:25:02.185Z,41431.72
2023-04-24T13:27:28.768Z,41447.69
2023-04-24T13:29:55.124Z,41433.72
2023-04-24T13:32:21.677Z,41451.69
2023-04-24T13:34:48.284Z,41419.75
2023-04-24T13:37:14.904Z,41433.72
2023-04-24T13:39:42.271Z,41437.72
2023-04-24T13:42:09.448Z,41401.78
2023-04-24T13:44:36.387Z,41409.78
2023-04-24T13:47:02.917Z,41393.81
2023-04-24T13:49:29.566Z,41427.75
2023-04-24T13:51:57.012Z,41405.78
2023-04-24T13:54:26.483Z,41401.78
2023-04-24T13:56:53.750Z,41437.72
2023-04-24T13:59:23.133Z,41415.75
2023-04-24T14:01:49.993Z,41385.81
2023-04-24T14:04:16.777Z,41395.81
2023-04-24T14:06:43.880Z,41401.78
2023-04-24T14:09:10.484Z,41369.84
2023-04-24T14:11:37.032Z,41327.94
2023-04-24T14:14:03.881Z,41329.94
2023-04-24T14:16:31.477Z,41284.03
2023-04-24T14:18:58.104Z,41260.06
2023-04-24T14:21:24.488Z,41232.13
2023-04-24T14:23:51.791Z,41266.06
2023-04-24T14:26:18.524Z,41264.06
2023-04-24T14:28:44.923Z,41276.03
2023-04-24T14:31:12.371Z,41311.97
2023-04-24T14:33:38.774Z,41329.94
2023-04-24T14:36:06.472Z,41351.88
2023-04-24T14:38:32.976Z,41371.84
2023-04-24T14:41:07.302Z,41351.88
2023-04-24T14:43:36.029Z,41367.84
2023-04-24T14:46:03.116Z,41371.84
2023-04-24T14:48:29.527Z,41357.88
2023-04-24T14:50:55.943Z,41391.81
2023-04-24T14:53:22.418Z,41419.75
2023-04-24T14:55:48.900Z,41391.81
2023-04-24T14:58:15.406Z,41365.84
2023-04-24T15:00:41.832Z,41383.81
2023-04-24T15:03:08.458Z,41387.81
2023-04-24T15:05:35.689Z,41389.81
2023-04-24T15:08:02.661Z,41379.84
2023-04-24T15:10:30.547Z,41383.81
2023-04-24T15:12:57.074Z,41351.88
2023-04-24T15:15:23.626Z,41367.84
2023-04-24T15:17:50.125Z,41343.91
2023-04-24T15:20:16.702Z,41343.91
2023-04-24T15:22:43.249Z,41331.94
2023-04-24T15:25:11.006Z,41323.94
2023-04-24T15:27:44.220Z,41327.94
2023-04-24T15:30:11.520Z,41309.97
2023-04-24T15:32:39.732Z,41292.00
2023-04-24T15:35:09.613Z,41300.00
2023-04-24T15:37:37.981Z,41307.97
2023-04-24T15:40:06.344Z,41288.00
2023-04-24T15:42:34.042Z,41288.00
2023-04-24T15:45:00.596Z,41268.06
2023-04-24T15:47:27.298Z,41256.09
2023-04-24T15:49:54.477Z,41260.06
2023-04-24T15:52:21.866Z,41258.06
2023-04-24T15:54:48.615Z,41256.09
2023-04-24T15:57:15.387Z,41248.09
2023-04-24T15:59:42.129Z,41236.13
2023-04-24T16:02:19.070Z,41252.09
2023-04-24T16:04:47.758Z,41212.16
2023-04-24T16:07:15.766Z,41224.16
2023-04-24T16:09:42.618Z,41260.06
2023-04-24T16:12:10.170Z,41232.13
2023-04-24T16:14:37.792Z,41236.13
2023-04-24T16:17:04.902Z,41232.13
2023-04-24T16:19:33.738Z,41218.16
2023-04-24T16:22:00.172Z,41214.16
2023-04-24T16:24:26.930Z,41160.28
2023-04-24T16:26:56.221Z,41172.25
2023-04-24T16:29:22.725Z,41142.31
2023-04-24T16:31:49.202Z,41180.22
2023-04-24T16:34:15.641Z,41128.34
2023-04-24T16:36:42.828Z,41110.38
2023-04-24T16:39:09.761Z,41104.38
2023-04-24T16:41:36.205Z,41116.38
2023-04-24T16:44:02.610Z,41154.28
2023-04-24T16:46:29.041Z,41140.31
2023-04-24T16:48:55.547Z,41128.34
2023-04-24T16:51:21.933Z,41100.41
2023-04-24T16:53:48.764Z,41094.41
2023-04-24T16:56:15.668Z,41098.41
2023-04-24T16:58:42.048Z,41068.47
2023-04-24T17:01:08.785Z,41048.50
2023-04-24T17:03:35.328Z,41064.47
2023-04-24T17:06:02.037Z,41096.41
2023-04-24T17:08:29.710Z,41040.53
2023-04-24T17:10:56.317Z,41036.53
2023-04-24T17:13:22.753Z,41048.50
2023-04-24T17:15:49.178Z,41028.56
2023-04-24T17:18:15.777Z,41004.59
2023-04-24T17:20:42.270Z,41000.59
2023-04-24T17:23:11.788Z,41022.56
2023-04-24T17:25:38.472Z,41016.56
2023-04-24T17:28:31.325Z,41028.56
2023-04-24T17:30:58.629Z,41012.59
2023-04-24T17:33:30.531Z,41014.56
2023-04-24T17:36:01.865Z,41024.56
2023-04-24T17:38:31.627Z,41020.56
2023-04-24T17:40:58.359Z,41004.59
2023-04-24T17:43:24.870Z,41014.56
2023-04-24T17:45:53.145Z,41012.59
2023-04-24T17:48:19.903Z,40944.72
2023-04-24T17:50:46.355Z,40968.69
2023-04-24T17:53:13.521Z,40962.69
2023-04-24T17:55:40.431Z,40984.63
2023-04-24T17:58:06.818Z,40974.66
2023-04-24T18:00:34.160Z,40962.69
2023-04-24T18:03:01.615Z,40992.63
2023-04-24T18:05:31.673Z,40962.69
2023-04-24T18:07:58.927Z,40966.69
2023-04-24T18:10:26.510Z,40980.66
2023-04-24T18:12:53.105Z,40998.63
2023-04-24T18:15:20.720Z,40998.63
2023-04-24T18:17:47.531Z,40974.66
2023-04-24T18:20:15.938Z,40962.69
2023-04-24T18:22:42.791Z,40948.72
2023-04-24T18:25:09.949Z,40978.66
2023-04-24T18:27:37.206Z,40980.66
2023-04-24T18:30:05.215Z,40976.66
2023-04-24T18:32:31.779Z,40976.66
2023-04-24T18:34:58.311Z,40982.66
2023-04-24T18:37:24.967Z,40944.72
2023-04-24T18:39:51.453Z,40960.69
2023-04-24T18:42:18.511Z,40980.66
2023-04-24T18:44:45.112Z,40964.69
2023-04-24T18:47:11.569Z,40946.72
2023-04-24T18:49:38.121Z,40936.75
2023-04-24T18:52:04.974Z,40940.72
2023-04-24T18:54:31.858Z,40932.75
2023-04-24T18:56:58.298Z,40928.75
2023-04-24T18:59:24.657Z,40896.81
2023-04-24T19:01:51.545Z,40904.81
2023-04-24T19:04:20.531Z,40908.81
2023-04-24T19:06:47.217Z,40908.81
2023-04-24T19:09:13.881Z,40918.78
2023-04-24T19:11:42.113Z,40910.81
2023-04-24T19:14:08.566Z,40874.88
2023-04-24T19:16:35.207Z,40876.88
2023-04-24T19:19:03.667Z,40892.84
2023-04-24T19:21:32.002Z,40880.88
2023-04-24T19:23:58.683Z,40844.94
2023-04-24T19:26:26.588Z,40864.91
2023-04-24T19:28:53.545Z,40836.97
2023-04-24T19:31:19.972Z,40856.91
2023-04-24T19:33:48.325Z,40864.91
2023-04-24T19:36:17.565Z,40852.91
2023-04-24T19:38:45.158Z,40876.88
2023-04-24T19:41:12.391Z,40880.88
2023-04-24T19:43:41.813Z,40872.88
2023-04-24T19:46:08.677Z,40908.81
2023-04-24T19:48:35.220Z,40864.91
2023-04-24T19:51:02.740Z,40842.94
2023-04-24T19:53:30.217Z,40838.94
2023-04-24T19:55:56.917Z,40823.00
2023-04-24T19:58:23.439Z,40836.97
2023-04-24T20:00:49.984Z,40832.97
2023-04-24T20:03:31.299Z,40828.97
2023-04-24T20:05:59.571Z,40840.94
2023-04-24T20:08:26.059Z,40832.97
2023-04-24T20:10:54.168Z,40815.00
2023-04-24T20:13:20.815Z,40817.00
2023-04-24T20:15:47.675Z,40824.97
2023-04-24T20:18:14.076Z,40840.94
2023-04-24T20:20:41.451Z,40832.97
2023-04-24T20:23:08.036Z,40860.91
2023-04-24T20:25:35.640Z,40819.00
2023-04-24T20:28:02.108Z,40848.94
2023-04-24T20:30:28.603Z,40834.97
2023-04-24T20:32:55.282Z,40824.97
2023-04-24T20:35:21.709Z,40844.94
2023-04-24T20:37:48.455Z,40876.88
2023-04-24T20:40:14.845Z,40848.94
2023-04-24T20:42:41.627Z,40856.91
2023-04-24T20:45:08.544Z,40852.91
2023-04-24T20:47:35.660Z,40832.97
2023-04-24T20:50:03.946Z,40860.91
2023-04-24T20:52:30.447Z,40868.88
2023-04-24T20:54:56.974Z,40868.88
2023-04-24T20:57:23.480Z,40852.91
2023-04-24T20:59:49.911Z,40880.88
2023-04-24T21:02:16.515Z,40858.91
2023-04-24T21:04:43.037Z,40856.91
2023-04-24T21:07:10.221Z,40858.91
2023-04-24T21:09:36.615Z,40832.97
2023-04-24T21:12:03.232Z,40836.97
2023-04-24T21:14:29.630Z,40880.88
2023-04-24T21:16:58.180Z,40854.91
2023-04-24T21:19:24.690Z,40848.94
2023-04-24T21:21:51.099Z,40832.97
2023-04-24T21:24:17.930Z,40852.91
2023-04-24T21:26:44.753Z,40852.91
2023-04-24T21:29:11.380Z,40856.91
2023-04-24T21:31:38.152Z,40852.91
2023-04-24T21:34:04.581Z,40848.94
2023-04-24T21:36:32.706Z,40848.94
2023-04-24T21:38:59.505Z,40846.94
2023-04-24T21:41:26.187Z,40868.88
2023-04-24T21:43:53.131Z,40856.91
2023-04-24T21:46:20.291Z,40864.91
2023-04-24T21:48:46.793Z,40894.84
2023-04-24T21:51:13.231Z,40880.88
2023-04-24T21:53:39.884Z,40872.88
2023-04-24T21:56:06.459Z,40872.88
2023-04-24T21:58:33.016Z,40864.91
2023-04-24T22:00:59.525Z,40876.88
2023-04-24T22:03:26.111Z,40888.84
2023-04-24T22:05:52.667Z,40866.91
2023-04-24T22:08:19.047Z,40880.88
2023-04-24T22:10:45.925Z,40860.91
2023-04-24T22:13:12.343Z,40868.88
2023-04-24T22:15:38.828Z,40904.81
2023-04-24T22:18:06.558Z,40908.81
2023-04-24T22:20:35.720Z,40868.88
2023-04-24T22:23:02.138Z,40882.84
2023-04-24T22:25:28.552Z,40872.88
2023-04-24T22:27:55.010Z,40892.84
2023-04-24T22:30:21.474Z,40892.84
2023-04-24T22:32:48.182Z,40880.88
2023-04-24T22:35:14.815Z,40840.94
2023-04-24T22:37:41.208Z,40870.88
2023-04-24T22:40:08.371Z,40880.88
2023-04-24T22:42:35.238Z,40908.81
2023-04-24T22:45:02.063Z,40908.81
2023-04-24T22:47:28.995Z,40892.84
2023-04-24T22:49:57.445Z,40924.78
2023-04-24T22:52:23.916Z,40884.84
2023-04-24T22:54:50.429Z,40904.81
2023-04-24T22:57:17.133Z,40900.81
2023-04-24T22:59:44.067Z,40894.84
2023-04-24T23:02:11.050Z,40900.81
2023-04-24T23:04:37.508Z,40898.81
2023-04-24T23:07:03.980Z,40916.78
2023-04-24T23:09:30.531Z,40940.72
2023-04-24T23:11:57.905Z,40936.75
2023-04-24T23:14:24.693Z,40920.78
2023-04-24T23:16:51.277Z,40908.81
2023-04-24T23:19:17.857Z,40916.78
2023-04-24T23:21:44.272Z,40944.72
2023-04-24T23:24:11.057Z,40956.69
2023-04-24T23:26:38.028Z,40964.69
2023-04-24T23:29:04.423Z,40988.63
2023-04-24T23:31:30.903Z,40964.69
2023-04-24T23:33:59.830Z,40978.66
2023-04-24T23:36:26.823Z,40964.69
2023-04-24T23:38:53.247Z,40992.63
2023-04-24T23:41:19.845Z,40974.66
2023-04-24T23:43:46.410Z,40992.63
2023-04-24T23:46:13.677Z,41000.59
2023-04-24T23:48:40.554Z,40974.66
2023-04-24T23:51:07.157Z,40962.69
2023-04-24T23:53:33.593Z,41006.59
2023-04-24T23:56:00.380Z,41000.59
2023-04-24T23:58:26.782Z,41012.59
